Time;durP1;ratioP1;P1;durP2;ratioP2;P2;SDS_P1;SDS_P2;PMS_P1;PMS_P2;Temp;Humidity;BMP_temperature;BMP_pressure;BME280_temperature;BME280_humidity;BME280_pressure;Samples;Min_cycle;Max_cycle;Signal;HPM_P1;HPM_P2
2021/08/11 00:01:33;;;;;;;5.07;3.80;;;15.90;99.90;;;;;;6258426;22;20426;-83
2021/08/11 00:04:01;;;;;;;6.07;4.70;;;15.90;99.90;;;;;;6285342;22;20783;-84
2021/08/11 00:06:27;;;;;;;4.70;4.30;;;15.80;99.90;;;;;;6261252;22;20403;-84
2021/08/11 00:08:53;;;;;;;4.47;4.07;;;15.90;99.90;;;;;;6283379;22;20384;-84
2021/08/11 00:11:19;;;;;;;5.20;4.80;;;16.00;99.90;;;;;;6288086;22;20458;-83
2021/08/11 00:13:46;;;;;;;5.00;4.47;;;16.00;99.90;;;;;;6239068;22;20166;-84
2021/08/11 00:16:12;;;;;;;4.50;4.20;;;16.10;99.90;;;;;;6289426;22;20254;-84
2021/08/11 00:18:37;;;;;;;5.60;5.10;;;16.30;99.90;;;;;;6290798;22;20763;-84
2021/08/11 00:21:05;;;;;;;5.07;4.57;;;16.40;99.90;;;;;;6292387;22;20170;-84
2021/08/11 00:23:31;;;;;;;6.43;5.00;;;16.40;99.90;;;;;;6289461;22;20400;-83
2021/08/11 00:25:57;;;;;;;5.37;4.87;;;16.50;99.90;;;;;;6289849;22;20388;-83
2021/08/11 00:28:24;;;;;;;9.47;5.57;;;16.40;99.90;;;;;;6290402;22;20165;-85
2021/08/11 00:30:51;;;;;;;6.53;4.97;;;16.50;99.90;;;;;;6261744;22;20396;-83
2021/08/11 00:33:17;;;;;;;5.10;4.70;;;16.40;99.90;;;;;;6263532;22;21087;-83
2021/08/11 00:35:43;;;;;;;7.37;4.70;;;16.50;99.90;;;;;;6265020;22;20443;-83
2021/08/11 00:38:08;;;;;;;6.10;5.60;;;16.50;99.90;;;;;;6290736;22;20623;-83
2021/08/11 00:40:34;;;;;;;5.73;5.20;;;16.50;99.90;;;;;;6261927;22;20259;-83
2021/08/11 00:43:05;;;;;;;5.23;4.73;;;16.50;99.90;;;;;;6290617;22;20173;-83
2021/08/11 00:45:31;;;;;;;8.00;4.90;;;16.60;99.90;;;;;;6264172;22;20392;-83
2021/08/11 00:47:57;;;;;;;5.23;4.57;;;16.50;99.90;;;;;;6264089;22;20395;-83
2021/08/11 00:50:23;;;;;;;5.90;5.40;;;16.50;99.90;;;;;;6290305;22;20493;-83
2021/08/11 00:52:48;;;;;;;5.50;4.97;;;16.50;99.90;;;;;;6290727;22;20181;-83
2021/08/11 00:55:15;;;;;;;6.20;5.60;;;16.60;99.90;;;;;;6264528;22;21547;-84
2021/08/11 00:57:43;;;;;;;5.27;4.77;;;16.50;99.90;;;;;;6265051;22;20499;-83
2021/08/11 01:00:09;;;;;;;4.53;4.13;;;16.30;99.90;;;;;;6264787;22;20469;-83
2021/08/11 01:02:38;;;;;;;5.57;5.10;;;16.20;99.90;;;;;;6264010;22;20388;-83
2021/08/11 01:05:04;;;;;;;7.97;5.63;;;16.00;99.90;;;;;;6262593;22;20408;-83
2021/08/11 01:07:32;;;;;;;5.77;4.70;;;15.80;99.90;;;;;;6263918;22;20454;-86
2021/08/11 01:09:58;;;;;;;5.37;4.87;;;15.80;99.90;;;;;;6263527;22;20492;-84
2021/08/11 01:12:26;;;;;;;5.83;5.30;;;15.80;99.90;;;;;;6265705;22;20424;-83
2021/08/11 01:14:53;;;;;;;6.47;5.33;;;15.80;99.90;;;;;;6264248;22;20980;-83
2021/08/11 01:17:27;;;;;;;5.80;5.20;;;16.00;99.90;;;;;;6263293;22;20392;-84
2021/08/11 01:19:55;;;;;;;5.60;5.00;;;16.00;99.90;;;;;;6262950;22;20396;-84
2021/08/11 01:22:32;;;;;;;6.10;5.50;;;16.10;99.90;;;;;;6264802;22;20445;-84
2021/08/11 01:25:10;;;;;;;5.70;5.10;;;16.10;99.90;;;;;;6264167;22;20434;-84
2021/08/11 01:28:05;;;;;;;5.63;4.43;;;16.10;99.90;;;;;;6265661;22;20915;-84
2021/08/11 01:30:56;;;;;;;6.30;4.47;;;16.00;99.90;;;;;;6262721;22;20483;-84
2021/08/11 01:33:47;;;;;;;5.07;4.57;;;15.80;99.90;;;;;;6266736;22;20392;-84
2021/08/11 01:36:33;;;;;;;5.73;5.03;;;15.60;99.90;;;;;;6264594;22;20475;-84
2021/08/11 01:39:05;;;;;;;5.70;5.20;;;15.30;99.90;;;;;;6262826;22;20434;-84
2021/08/11 01:41:35;;;;;;;5.23;4.73;;;15.10;99.90;;;;;;6262696;22;20410;-84
2021/08/11 01:44:03;;;;;;;5.27;4.70;;;15.20;99.90;;;;;;6289873;22;20416;-84
2021/08/11 01:46:30;;;;;;;5.90;5.30;;;15.30;99.90;;;;;;6263307;22;20507;-84
2021/08/11 01:48:59;;;;;;;8.53;5.10;;;15.40;99.90;;;;;;6264802;22;20834;-84
2021/08/11 01:51:25;;;;;;;5.20;4.80;;;15.60;99.90;;;;;;6263682;22;20446;-84
2021/08/11 01:53:52;;;;;;;6.10;5.50;;;15.60;99.90;;;;;;6263579;22;20438;-84
2021/08/11 01:56:18;;;;;;;5.50;5.00;;;15.60;99.90;;;;;;6262829;22;20435;-84
2021/08/11 01:58:46;;;;;;;7.70;5.20;;;15.70;99.90;;;;;;6263182;22;20396;-84
2021/08/11 02:01:12;;;;;;;6.10;5.37;;;15.80;99.90;;;;;;6263228;22;20499;-84
2021/08/11 02:03:39;;;;;;;5.67;5.17;;;15.90;99.90;;;;;;6289542;22;20407;-84
2021/08/11 02:06:05;;;;;;;6.27;5.63;;;15.80;99.90;;;;;;6263873;22;20731;-84
2021/08/11 02:08:32;;;;;;;6.40;5.13;;;15.90;99.90;;;;;;6263992;22;20407;-84
2021/08/11 02:11:00;;;;;;;6.20;5.63;;;15.80;99.90;;;;;;6263421;22;20404;-84
2021/08/11 02:13:27;;;;;;;7.53;5.47;;;15.80;99.90;;;;;;6263199;22;20396;-84
2021/08/11 02:15:53;;;;;;;6.80;5.50;;;15.80;99.90;;;;;;6263440;22;21009;-84
2021/08/11 02:18:19;;;;;;;6.10;5.43;;;15.70;99.90;;;;;;6288709;22;20399;-85
2021/08/11 02:20:46;;;;;;;7.90;5.03;;;15.70;99.90;;;;;;6289536;22;20397;-84
2021/08/11 02:23:12;;;;;;;6.00;5.40;;;15.70;99.90;;;;;;6263338;22;20392;-84
2021/08/11 02:25:47;;;;;;;7.30;6.60;;;15.70;99.90;;;;;;6289897;22;20414;-84
2021/08/11 02:28:24;;;;;;;5.50;5.00;;;15.60;99.90;;;;;;6262781;22;20157;-84
2021/08/11 02:31:05;;;;;;;6.53;5.93;;;15.40;99.90;;;;;;6263966;22;20896;-84
2021/08/11 02:34:11;;;;;;;11.30;6.20;;;15.30;99.90;;;;;;6263596;22;20903;-84
2021/08/11 02:36:48;;;;;;;6.03;5.43;;;15.30;99.90;;;;;;6290676;22;20543;-84
2021/08/11 02:39:19;;;;;;;7.80;6.03;;;15.20;99.90;;;;;;6264913;22;20400;-84
2021/08/11 02:41:53;;;;;;;5.93;5.33;;;15.10;99.90;;;;;;6263553;22;20743;-84
2021/08/11 02:44:30;;;;;;;5.90;5.30;;;15.10;99.90;;;;;;6263518;22;20892;-84
2021/08/11 02:46:58;;;;;;;5.90;4.60;;;15.10;99.90;;;;;;6261684;22;20466;-85
2021/08/11 02:49:29;;;;;;;6.57;5.97;;;15.10;99.90;;;;;;6263835;22;20881;-84
2021/08/11 02:51:57;;;;;;;6.80;5.17;;;15.10;99.90;;;;;;6263895;22;20418;-84
2021/08/11 02:54:24;;;;;;;5.70;4.63;;;15.00;99.90;;;;;;6262365;22;20945;-84
2021/08/11 02:56:50;;;;;;;7.10;4.93;;;15.10;99.90;;;;;;6263606;22;20739;-84
2021/08/11 02:59:16;;;;;;;5.47;4.83;;;15.20;99.90;;;;;;6288799;22;20471;-84
2021/08/11 03:01:43;;;;;;;5.43;4.93;;;15.40;99.90;;;;;;6262280;22;20211;-85
2021/08/11 03:04:09;;;;;;;5.67;5.17;;;15.40;99.90;;;;;;6261991;22;20399;-84
2021/08/11 03:06:35;;;;;;;5.90;5.40;;;15.30;99.90;;;;;;6290947;22;20384;-84
2021/08/11 03:09:02;;;;;;;6.70;5.73;;;15.20;99.90;;;;;;6263127;22;20244;-84
2021/08/11 03:11:29;;;;;;;6.50;5.73;;;15.10;99.90;;;;;;6261425;22;20164;-84
2021/08/11 03:13:55;;;;;;;6.57;5.87;;;15.00;99.90;;;;;;6263372;22;20750;-84
2021/08/11 03:16:21;;;;;;;6.33;5.50;;;15.00;99.90;;;;;;6262242;22;20512;-84
2021/08/11 03:18:51;;;;;;;5.83;5.23;;;14.80;99.90;;;;;;6262867;22;20500;-84
2021/08/11 03:21:17;;;;;;;5.83;5.33;;;14.90;99.90;;;;;;6261318;22;20624;-84
2021/08/11 03:23:43;;;;;;;8.60;5.90;;;14.90;99.90;;;;;;6263104;22;20913;-85
2021/08/11 03:26:08;;;;;;;5.97;5.00;;;14.90;99.90;;;;;;6287898;22;20415;-84
2021/08/11 03:28:34;;;;;;;6.77;6.07;;;14.90;99.90;;;;;;6291242;22;20563;-84
2021/08/11 03:31:00;;;;;;;7.30;6.27;;;15.00;99.90;;;;;;6288064;22;20486;-84
2021/08/11 03:33:26;;;;;;;6.90;6.30;;;15.10;99.90;;;;;;6264249;22;20381;-84
2021/08/11 03:35:51;;;;;;;6.37;5.73;;;15.30;99.90;;;;;;6288467;22;20246;-84
2021/08/11 03:38:17;;;;;;;6.63;6.03;;;15.30;99.90;;;;;;6289015;22;20534;-84
2021/08/11 03:40:43;;;;;;;8.10;7.30;;;15.40;99.90;;;;;;6289709;22;20162;-84
2021/08/11 03:43:09;;;;;;;7.23;6.33;;;15.30;99.90;;;;;;6264210;22;20161;-84
2021/08/11 03:45:35;;;;;;;9.70;6.90;;;15.40;99.90;;;;;;6287984;22;20498;-84
2021/08/11 03:48:00;;;;;;;7.40;6.70;;;15.50;99.90;;;;;;6263629;22;20388;-84
2021/08/11 03:50:27;;;;;;;7.57;6.73;;;15.50;99.90;;;;;;6288147;22;20599;-84
2021/08/11 03:52:53;;;;;;;11.20;7.13;;;15.50;99.90;;;;;;6289847;22;20185;-85
2021/08/11 03:55:18;;;;;;;8.30;7.50;;;15.60;99.90;;;;;;6288536;22;20440;-84
2021/08/11 03:57:44;;;;;;;8.43;7.00;;;15.60;99.90;;;;;;6289849;22;20161;-83
2021/08/11 04:00:11;;;;;;;7.43;6.70;;;15.60;99.90;;;;;;6289425;22;20490;-84
2021/08/11 04:02:37;;;;;;;8.60;6.80;;;15.70;99.90;;;;;;6264101;22;20169;-84
2021/08/11 04:05:07;;;;;;;9.87;6.47;;;15.70;99.90;;;;;;6288046;22;20400;-84
2021/08/11 04:07:35;;;;;;;7.63;6.73;;;15.60;99.90;;;;;;6261394;22;20497;-84
2021/08/11 04:10:06;;;;;;;7.70;6.10;;;15.60;99.90;;;;;;6264012;22;20437;-85
2021/08/11 04:12:31;;;;;;;7.73;6.30;;;15.60;99.90;;;;;;6263500;22;20463;-83
2021/08/11 04:14:57;;;;;;;6.33;5.70;;;15.60;99.90;;;;;;6288957;22;20579;-84
2021/08/11 04:17:23;;;;;;;7.20;6.50;;;15.50;99.90;;;;;;6289466;22;20165;-84
2021/08/11 04:19:48;;;;;;;6.73;5.73;;;15.50;99.90;;;;;;6289160;22;20173;-85
2021/08/11 04:22:14;;;;;;;6.90;6.20;;;15.50;99.90;;;;;;6289807;22;20399;-84
2021/08/11 04:24:39;;;;;;;7.00;6.13;;;15.50;99.90;;;;;;6295647;22;20490;-85
2021/08/11 04:27:05;;;;;;;7.37;6.23;;;15.50;99.90;;;;;;6295693;22;20248;-85
2021/08/11 04:29:31;;;;;;;9.37;6.43;;;15.50;99.90;;;;;;6295881;22;20161;-85
2021/08/11 04:31:56;;;;;;;7.73;6.30;;;15.50;99.90;;;;;;6294545;22;20161;-85
2021/08/11 04:34:23;;;;;;;8.63;6.00;;;15.60;99.90;;;;;;6299327;22;20679;-85
2021/08/11 04:36:48;;;;;;;10.17;6.83;;;15.60;99.90;;;;;;6297919;22;20197;-85
2021/08/11 04:39:14;;;;;;;7.23;6.40;;;15.50;99.90;;;;;;6297315;22;20865;-85
2021/08/11 04:41:41;;;;;;;6.63;5.93;;;15.40;99.90;;;;;;6296590;22;20158;-87
2021/08/11 04:44:10;;;;;;;7.97;6.30;;;15.40;99.90;;;;;;6299616;22;20169;-86
2021/08/11 04:46:38;;;;;;;6.83;6.17;;;15.40;99.90;;;;;;6297738;22;20487;-87
2021/08/11 04:49:05;;;;;;;9.43;6.60;;;15.40;99.90;;;;;;6273341;22;20388;-86
2021/08/11 04:51:31;;;;;;;11.17;6.40;;;15.50;99.90;;;;;;6297288;22;20404;-86
2021/08/11 04:53:57;;;;;;;7.00;6.40;;;15.40;99.90;;;;;;6301332;22;20408;-86
2021/08/11 04:56:23;;;;;;;7.90;5.97;;;15.40;99.90;;;;;;6297876;22;20446;-86
2021/08/11 04:58:48;;;;;;;8.27;6.70;;;15.40;99.90;;;;;;6297646;22;20490;-86
2021/08/11 05:01:23;;;;;;;7.80;6.80;;;15.50;99.90;;;;;;6296125;22;20164;-87
2021/08/11 05:03:48;;;;;;;9.43;6.70;;;15.60;99.90;;;;;;6299050;22;20870;-86
2021/08/11 05:06:15;;;;;;;7.10;6.37;;;15.80;99.90;;;;;;6299232;22;20496;-86
2021/08/11 05:08:41;;;;;;;8.50;6.37;;;15.80;99.90;;;;;;6272831;22;20207;-86
2021/08/11 05:11:07;;;;;;;7.13;6.43;;;16.00;99.90;;;;;;6297774;22;20406;-86
2021/08/11 05:13:32;;;;;;;7.10;6.40;;;16.00;99.90;;;;;;6298343;22;20869;-86
2021/08/11 05:15:58;;;;;;;7.20;6.33;;;16.10;99.90;;;;;;6297311;22;20291;-86
2021/08/11 05:18:24;;;;;;;8.40;5.67;;;16.10;99.90;;;;;;6298254;22;20425;-86
2021/08/11 05:20:51;;;;;;;7.83;7.10;;;16.10;99.90;;;;;;6297471;22;20166;-87
2021/08/11 05:23:17;;;;;;;7.93;6.40;;;16.10;99.90;;;;;;6272142;22;20396;-86
2021/08/11 05:25:43;;;;;;;7.90;7.20;;;16.10;99.90;;;;;;6301387;22;20483;-85
2021/08/11 05:28:09;;;;;;;7.43;6.50;;;16.00;99.90;;;;;;6298635;22;20652;-86
2021/08/11 05:30:36;;;;;;;7.90;5.83;;;16.10;99.90;;;;;;6271220;22;20244;-86
2021/08/11 05:33:02;;;;;;;11.53;8.53;;;16.20;99.90;;;;;;6270879;22;20394;-86
2021/08/11 05:35:27;;;;;;;6.80;6.30;;;16.20;99.90;;;;;;6296418;22;20454;-86
2021/08/11 05:37:53;;;;;;;7.57;6.77;;;16.20;99.90;;;;;;6297149;22;20600;-85
2021/08/11 05:40:19;;;;;;;8.13;6.83;;;16.10;99.90;;;;;;6297415;22;20154;-84
2021/08/11 05:42:46;;;;;;;6.87;6.20;;;16.20;99.90;;;;;;6293084;22;20731;-86
2021/08/11 05:45:12;;;;;;;7.57;6.43;;;16.30;99.90;;;;;;6275665;22;20165;-94
2021/08/11 05:47:38;;;;;;;7.27;6.40;;;16.40;99.90;;;;;;6298803;22;20368;-81
2021/08/11 05:50:07;;;;;;;127.20;116.37;;;16.50;99.90;;;;;;6270244;22;20424;-82
2021/08/11 05:52:33;;;;;;;7.73;6.93;;;16.60;99.90;;;;;;6270518;22;20413;-82
2021/08/11 05:54:59;;;;;;;6.97;6.33;;;16.70;99.90;;;;;;6271054;22;20981;-83
2021/08/11 05:57:25;;;;;;;6.30;5.80;;;16.80;99.90;;;;;;6296637;22;20740;-82
2021/08/11 05:59:50;;;;;;;6.90;6.30;;;16.90;99.90;;;;;;6270832;22;20209;-82
2021/08/11 06:02:16;;;;;;;8.33;6.50;;;17.00;99.90;;;;;;6296405;22;20722;-83
2021/08/11 06:04:42;;;;;;;8.00;7.23;;;17.10;99.90;;;;;;6296635;22;20252;-82
2021/08/11 06:07:07;;;;;;;6.70;6.20;;;17.10;99.90;;;;;;6295730;22;20162;-83
2021/08/11 06:09:33;;;;;;;7.20;6.47;;;17.00;99.90;;;;;;6294614;22;20219;-80
2021/08/11 06:11:59;;;;;;;10.50;5.87;;;17.10;99.90;;;;;;6271835;22;20468;-81
2021/08/11 06:14:25;;;;;;;7.30;6.40;;;17.20;99.90;;;;;;6295999;22;20273;-81
2021/08/11 06:16:51;;;;;;;7.70;6.53;;;17.20;99.90;;;;;;6297482;22;20817;-80
2021/08/11 06:19:16;;;;;;;10.63;6.73;;;17.20;99.90;;;;;;6297506;22;20630;-82
2021/08/11 06:21:42;;;;;;;7.50;6.20;;;17.10;99.90;;;;;;6297774;22;20171;-80
2021/08/11 06:24:08;;;;;;;6.23;5.63;;;17.20;99.90;;;;;;6296638;22;20162;-81
2021/08/11 06:26:35;;;;;;;5.63;5.13;;;17.30;99.90;;;;;;6271164;22;20166;-80
2021/08/11 06:29:00;;;;;;;6.07;5.50;;;17.50;99.90;;;;;;6271966;22;20169;-80
2021/08/11 06:31:26;;;;;;;8.60;6.20;;;17.70;99.90;;;;;;6296416;22;20396;-80
2021/08/11 06:33:53;;;;;;;9.57;5.70;;;17.80;99.90;;;;;;6297125;22;20188;-80
2021/08/11 06:36:20;;;;;;;7.77;6.30;;;18.10;99.90;;;;;;6271629;22;20194;-80
2021/08/11 06:38:45;;;;;;;7.00;6.10;;;18.20;99.90;;;;;;6268813;22;20396;-81
2021/08/11 06:41:18;;;;;;;5.87;5.37;;;18.30;99.90;;;;;;6268678;22;20718;-81
2021/08/11 06:43:45;;;;;;;6.20;5.23;;;18.50;99.90;;;;;;6296392;22;20178;-81
2021/08/11 06:46:11;;;;;;;6.60;5.27;;;18.60;99.90;;;;;;6270239;22;20420;-80
2021/08/11 06:48:38;;;;;;;9.23;6.00;;;18.70;99.90;;;;;;6270688;22;20798;-81
2021/08/11 06:51:05;;;;;;;6.47;5.83;;;18.90;99.90;;;;;;6271310;22;20396;-80
2021/08/11 06:53:31;;;;;;;5.60;5.20;;;18.90;99.90;;;;;;6271478;22;20412;-80
2021/08/11 06:55:57;;;;;;;5.77;5.27;;;19.00;99.90;;;;;;6272010;22;20474;-80
2021/08/11 06:58:22;;;;;;;5.20;4.80;;;19.20;99.90;;;;;;6297048;22;20392;-81
2021/08/11 07:00:48;;;;;;;5.77;5.10;;;19.20;99.90;;;;;;6295544;22;20172;-81
2021/08/11 07:03:14;;;;;;;7.00;4.87;;;19.30;99.90;;;;;;6297440;22;20367;-81
2021/08/11 07:05:39;;;;;;;7.10;5.53;;;19.40;99.90;;;;;;6296446;22;20219;-81
2021/08/11 07:08:05;;;;;;;6.17;4.83;;;19.50;99.90;;;;;;6297113;22;20534;-82
2021/08/11 07:10:31;;;;;;;5.70;5.20;;;19.50;99.90;;;;;;6296830;22;20249;-82
2021/08/11 07:12:56;;;;;;;5.23;4.73;;;19.50;99.90;;;;;;6297306;22;20158;-84
2021/08/11 07:15:22;;;;;;;4.90;4.50;;;19.80;99.90;;;;;;6297464;22;20276;-82
2021/08/11 07:17:55;;;;;;;6.47;5.40;;;20.10;99.90;;;;;;6298922;22;20161;-83
2021/08/11 07:20:23;;;;;;;5.93;5.40;;;20.30;99.90;;;;;;6269611;22;20213;-86
2021/08/11 07:22:49;;;;;;;7.27;4.50;;;20.40;99.90;;;;;;6271571;22;21139;-84
2021/08/11 07:25:14;;;;;;;5.20;4.80;;;20.60;99.90;;;;;;6296770;22;20396;-84
2021/08/11 07:27:40;;;;;;;5.93;4.93;;;20.70;99.90;;;;;;6297011;22;20326;-85
2021/08/11 07:30:06;;;;;;;5.50;5.00;;;20.40;99.90;;;;;;6296527;22;20165;-83
2021/08/11 07:32:32;;;;;;;5.43;4.80;;;20.10;99.90;;;;;;6296505;22;20158;-83
2021/08/11 07:34:58;;;;;;;6.80;5.13;;;20.20;99.90;;;;;;6296433;22;21015;-83
2021/08/11 07:37:23;;;;;;;5.33;4.93;;;20.50;99.90;;;;;;6298018;22;20605;-83
2021/08/11 07:39:49;;;;;;;6.40;4.63;;;20.70;99.90;;;;;;6297208;22;20607;-83
2021/08/11 07:42:15;;;;;;;5.23;4.73;;;20.90;99.90;;;;;;6296072;22;20214;-83
2021/08/11 07:44:40;;;;;;;5.93;4.63;;;21.20;99.90;;;;;;6298157;22;20491;-84
2021/08/11 07:47:06;;;;;;;5.03;4.57;;;21.40;99.90;;;;;;6296763;22;20195;-83
2021/08/11 07:49:32;;;;;;;5.73;5.00;;;21.60;99.90;;;;;;6296516;22;20158;-84
2021/08/11 07:51:58;;;;;;;7.10;4.70;;;21.70;99.90;;;;;;6295914;22;20561;-85
2021/08/11 07:54:24;;;;;;;4.60;4.17;;;21.80;99.90;;;;;;6270313;22;20476;-84
2021/08/11 07:56:49;;;;;;;5.63;4.70;;;21.70;99.90;;;;;;6295820;22;20400;-84
2021/08/11 07:59:15;;;;;;;4.47;4.07;;;21.70;99.90;;;;;;6298670;22;20165;-84
2021/08/11 08:01:41;;;;;;;5.07;4.67;;;21.80;99.90;;;;;;6298696;22;20166;-83
2021/08/11 08:04:06;;;;;;;5.23;4.03;;;21.90;99.90;;;;;;6299048;22;20218;-84
2021/08/11 08:06:32;;;;;;;4.70;4.30;;;22.00;99.90;;;;;;6298052;22;20187;-84
2021/08/11 08:08:58;;;;;;;6.33;4.57;;;22.30;99.90;;;;;;6298320;22;20229;-84
2021/08/11 08:11:23;;;;;;;5.90;4.30;;;22.40;99.90;;;;;;6297561;22;20158;-84
2021/08/11 08:13:49;;;;;;;4.40;4.10;;;22.70;99.90;;;;;;6299176;22;20157;-84
2021/08/11 08:16:16;;;;;;;6.10;4.70;;;22.90;99.90;;;;;;6297960;22;20233;-84
2021/08/11 08:18:41;;;;;;;4.73;4.20;;;23.10;99.90;;;;;;6273441;22;20899;-83
2021/08/11 08:21:07;;;;;;;4.40;4.00;;;22.90;99.90;;;;;;6297045;22;20399;-83
2021/08/11 08:23:33;;;;;;;4.67;4.27;;;22.90;99.90;;;;;;6298875;22;20197;-83
2021/08/11 08:25:59;;;;;;;4.63;4.07;;;23.00;99.90;;;;;;6270576;22;20168;-84
2021/08/11 08:28:25;;;;;;;4.00;3.70;;;23.00;99.90;;;;;;6297984;22;20165;-83
2021/08/11 08:30:51;;;;;;;5.23;4.73;;;23.20;99.90;;;;;;6297358;22;20396;-86
2021/08/11 08:33:17;;;;;;;5.33;4.47;;;23.40;99.90;;;;;;6273514;22;20170;-86
2021/08/11 08:35:43;;;;;;;4.60;4.10;;;23.40;99.90;;;;;;6297514;22;20704;-86
2021/08/11 08:38:09;;;;;;;4.37;4.03;;;23.50;99.90;;;;;;6299119;22;20787;-86
2021/08/11 08:40:38;;;;;;;4.67;4.27;;;23.70;99.90;;;;;;6298632;22;20426;-86
2021/08/11 08:43:06;;;;;;;4.67;4.00;;;23.70;99.90;;;;;;6271642;22;20388;-85
2021/08/11 08:45:33;;;;;;;7.37;4.60;;;23.60;99.90;;;;;;6272027;22;20403;-86
2021/08/11 08:48:03;;;;;;;6.30;4.03;;;23.60;99.90;;;;;;6298238;22;20906;-85
2021/08/11 08:50:29;;;;;;;5.80;4.47;;;23.70;99.90;;;;;;6271055;22;20434;-84
2021/08/11 08:52:55;;;;;;;4.73;4.37;;;23.80;99.90;;;;;;6296905;22;20415;-84
2021/08/11 08:55:21;;;;;;;5.23;4.70;;;23.90;99.90;;;;;;6272152;22;20196;-83
2021/08/11 08:57:47;;;;;;;5.80;4.53;;;23.80;99.90;;;;;;6272775;22;20718;-84
2021/08/11 09:00:13;;;;;;;5.00;4.57;;;23.90;99.90;;;;;;6297360;22;20403;-84
2021/08/11 09:02:40;;;;;;;4.37;3.97;;;23.90;99.90;;;;;;6268305;22;20168;-84
2021/08/11 09:05:08;;;;;;;4.70;4.13;;;23.80;99.90;;;;;;6270868;22;20404;-84
2021/08/11 09:07:33;;;;;;;5.20;4.20;;;23.80;99.90;;;;;;6270699;22;20388;-84
2021/08/11 09:10:14;;;;;;;5.13;4.73;;;24.00;99.90;;;;;;6294908;22;20976;-89
2021/08/11 09:12:44;;;;;;;5.60;5.10;;;23.90;99.90;;;;;;6269619;22;20166;-90
2021/08/11 09:15:29;;;;;;;5.60;5.10;;;24.10;99.90;;;;;;6269689;22;20436;-88
2021/08/11 09:17:57;;;;;;;4.90;4.50;;;24.40;99.90;;;;;;6270340;22;20395;-89
2021/08/11 09:20:27;;;;;;;4.80;4.40;;;24.60;99.90;;;;;;6269452;22;20781;-89
2021/08/11 09:22:56;;;;;;;5.17;4.63;;;25.00;99.90;;;;;;6269978;22;20388;-88
2021/08/11 09:25:22;;;;;;;5.50;4.63;;;25.00;99.90;;;;;;6269195;22;20400;-85
2021/08/11 09:27:49;;;;;;;4.70;4.30;;;25.00;99.90;;;;;;6270278;22;20454;-82
2021/08/11 09:30:19;;;;;;;4.93;4.53;;;24.90;99.70;;;;;;6296932;22;20400;-89
2021/08/11 09:33:11;;;;;;;4.47;4.17;;;25.00;99.90;;;;;;6270572;22;20395;-90
2021/08/11 09:35:46;;;;;;;5.87;4.77;;;25.00;99.90;;;;;;6296176;22;20442;-89
2021/08/11 09:38:33;;;;;;;4.67;4.20;;;25.10;99.80;;;;;;6270576;22;20396;-88
2021/08/11 09:40:58;;;;;;;4.80;4.50;;;25.20;98.40;;;;;;6296338;22;20399;-87
2021/08/11 09:43:35;;;;;;;4.57;4.17;;;25.30;99.20;;;;;;6297272;22;20389;-86
2021/08/11 09:46:01;;;;;;;4.93;4.43;;;25.00;98.30;;;;;;6297904;22;20165;-86
2021/08/11 09:48:41;;;;;;;4.37;4.00;;;25.00;98.70;;;;;;6296840;22;21030;-86
2021/08/11 09:51:10;;;;;;;4.23;3.83;;;24.90;98.40;;;;;;6269875;22;20165;-86
2021/08/11 09:53:39;;;;;;;4.70;4.30;;;25.10;98.50;;;;;;6297272;22;20453;-86
2021/08/11 09:56:12;;;;;;;7.13;4.73;;;25.10;98.30;;;;;;6271187;22;20501;-86
2021/08/11 09:58:42;;;;;;;4.60;4.20;;;25.30;97.90;;;;;;6270271;22;20961;-85
2021/08/11 10:01:16;;;;;;;4.83;4.13;;;25.50;98.40;;;;;;6271082;22;20412;-86
2021/08/11 10:04:06;;;;;;;6.47;4.90;;;25.60;97.90;;;;;;6272485;22;20407;-85
2021/08/11 10:06:34;;;;;;;4.97;4.47;;;25.50;97.80;;;;;;6271101;22;20766;-86
2021/08/11 10:09:15;;;;;;;4.40;4.00;;;25.70;98.40;;;;;;6271084;22;20479;-85
2021/08/11 10:11:47;;;;;;;4.93;4.40;;;25.60;98.40;;;;;;6272791;22;20392;-85
2021/08/11 10:14:14;;;;;;;4.90;4.50;;;25.70;98.10;;;;;;6273446;22;20392;-85
2021/08/11 10:16:41;;;;;;;4.70;4.27;;;25.90;97.50;;;;;;6298593;22;20400;-85
2021/08/11 10:19:09;;;;;;;6.20;5.60;;;26.00;96.80;;;;;;6299384;22;20376;-85
2021/08/11 10:22:01;;;;;;;4.97;4.57;;;26.20;97.60;;;;;;6271070;22;20406;-85
2021/08/11 10:24:29;;;;;;;4.27;3.90;;;26.30;96.50;;;;;;6251954;22;20408;-85
2021/08/11 10:26:55;;;;;;;4.47;4.03;;;26.30;96.50;;;;;;6270507;22;20395;-86
2021/08/11 10:29:21;;;;;;;4.80;4.50;;;26.60;96.70;;;;;;6297861;22;20410;-85
2021/08/11 10:31:48;;;;;;;5.33;4.60;;;26.70;95.90;;;;;;6270976;22;20161;-86
2021/08/11 10:34:16;;;;;;;4.57;4.17;;;26.80;96.00;;;;;;6272309;22;20400;-85
2021/08/11 10:36:45;;;;;;;4.60;4.20;;;27.10;95.30;;;;;;6271742;22;20917;-85
2021/08/11 10:39:11;;;;;;;4.97;4.57;;;27.20;94.10;;;;;;6271084;22;20767;-85
2021/08/11 10:41:38;;;;;;;4.53;4.23;;;27.20;95.10;;;;;;6270112;22;20400;-86
2021/08/11 10:44:14;;;;;;;4.70;4.40;;;27.20;94.20;;;;;;6271391;22;20396;-90
2021/08/11 10:46:43;;;;;;;5.10;4.70;;;27.00;93.50;;;;;;6270673;22;20907;-88
2021/08/11 10:49:30;;;;;;;5.30;4.90;;;27.00;93.80;;;;;;6272179;22;20475;-87
2021/08/11 10:52:16;;;;;;;5.23;4.77;;;27.00;93.70;;;;;;6299590;22;20713;-86
2021/08/11 10:54:54;;;;;;;4.90;4.60;;;27.30;92.30;;;;;;6270534;22;20435;-86
2021/08/11 10:57:38;;;;;;;5.00;4.60;;;27.50;92.40;;;;;;6296535;22;20434;-87
2021/08/11 11:00:30;;;;;;;4.80;4.43;;;27.90;92.60;;;;;;6294574;22;20403;-89
2021/08/11 11:02:57;;;;;;;5.47;5.00;;;28.30;92.00;;;;;;6296850;22;20449;-87
2021/08/11 11:05:24;;;;;;;6.87;5.00;;;28.50;93.00;;;;;;6298931;22;20386;-87
2021/08/11 11:08:18;;;;;;;5.20;4.70;;;28.90;91.50;;;;;;6270247;22;20388;-86
2021/08/11 11:10:46;;;;;;;4.93;4.57;;;28.60;90.50;;;;;;6214936;22;20392;-86
2021/08/11 11:13:31;;;;;;;5.17;4.70;;;27.90;92.40;;;;;;6298290;22;20471;-86
2021/08/11 11:15:59;;;;;;;5.73;4.60;;;27.60;91.40;;;;;;6270104;22;20484;-86
2021/08/11 11:18:25;;;;;;;5.67;4.50;;;27.80;90.70;;;;;;6271549;22;20388;-90
2021/08/11 11:20:57;;;;;;;5.23;4.83;;;28.00;91.80;;;;;;6270230;22;20407;-90
2021/08/11 11:23:37;;;;;;;5.10;4.67;;;28.40;90.10;;;;;;6298038;22;20474;-90
2021/08/11 11:26:09;;;;;;;5.10;4.70;;;28.90;89.00;;;;;;6270686;22;20722;-88
2021/08/11 11:28:55;;;;;;;5.13;4.73;;;29.70;85.10;;;;;;6270657;22;20461;-87
2021/08/11 11:31:32;;;;;;;10.93;10.03;;;29.30;85.00;;;;;;6271521;22;20918;-88
2021/08/11 11:34:26;;;;;;;5.57;5.07;;;28.80;85.50;;;;;;6271848;22;20703;-86
2021/08/11 11:36:55;;;;;;;5.90;5.40;;;28.10;86.90;;;;;;6273599;22;20730;-86
2021/08/11 11:39:25;;;;;;;6.10;5.60;;;27.30;89.80;;;;;;6269827;22;20404;-87
2021/08/11 11:42:07;;;;;;;7.37;6.00;;;26.90;90.00;;;;;;6270491;22;20396;-86
2021/08/11 11:44:42;;;;;;;5.97;5.47;;;27.00;92.80;;;;;;6272347;22;20721;-86
2021/08/11 11:47:09;;;;;;;6.07;5.57;;;26.60;90.40;;;;;;6273779;22;20392;-87
2021/08/11 11:49:36;;;;;;;5.97;5.47;;;26.30;92.00;;;;;;6271258;22;20761;-88
2021/08/11 11:52:04;;;;;;;8.10;5.97;;;26.20;94.50;;;;;;6272964;22;20445;-87
2021/08/11 11:54:32;;;;;;;11.63;6.50;;;26.10;95.20;;;;;;6271964;22;20411;-87
2021/08/11 11:56:58;;;;;;;6.77;5.10;;;25.90;96.10;;;;;;6273453;22;20479;-88
2021/08/11 11:59:24;;;;;;;8.63;6.57;;;26.20;96.00;;;;;;6272664;22;20989;-87
2021/08/11 12:01:51;;;;;;;5.97;5.47;;;26.60;95.80;;;;;;6273004;22;20392;-88
2021/08/11 12:04:24;;;;;;;5.77;5.20;;;27.00;96.00;;;;;;6297942;22;20215;-87
2021/08/11 12:06:50;;;;;;;5.83;5.33;;;27.90;93.80;;;;;;6297021;22;20398;-88
2021/08/11 12:09:15;;;;;;;9.60;5.87;;;27.30;94.50;;;;;;6271609;22;20861;-87
2021/08/11 12:11:41;;;;;;;6.17;5.60;;;27.00;94.60;;;;;;6297941;22;20295;-88
2021/08/11 12:14:07;;;;;;;6.60;4.97;;;27.00;94.80;;;;;;6271331;22;20170;-87
2021/08/11 12:16:57;;;;;;;5.67;5.20;;;27.10;94.90;;;;;;6299145;22;20189;-89
2021/08/11 12:19:23;;;;;;;6.93;5.40;;;27.20;94.70;;;;;;6298506;22;20607;-89
2021/08/11 12:21:49;;;;;;;5.33;4.83;;;27.30;94.80;;;;;;6297571;22;20396;-89
2021/08/11 12:24:16;;;;;;;6.17;5.57;;;28.10;94.20;;;;;;6297545;22;20188;-89
2021/08/11 12:26:41;;;;;;;5.37;4.97;;;28.70;93.10;;;;;;6271940;22;20256;-89
2021/08/11 12:29:18;;;;;;;5.73;5.17;;;29.20;92.90;;;;;;6297687;22;20866;-84
2021/08/11 12:31:45;;;;;;;5.67;5.17;;;29.50;91.70;;;;;;6271293;22;20165;-88
2021/08/11 12:34:12;;;;;;;4.80;4.43;;;29.30;90.40;;;;;;6299408;22;20731;-88
2021/08/11 12:36:41;;;;;;;6.23;5.43;;;29.40;92.10;;;;;;6297811;22;20874;-88
2021/08/11 12:39:11;;;;;;;6.70;6.20;;;29.80;91.10;;;;;;6299646;22;20392;-88
2021/08/11 12:41:38;;;;;;;5.20;4.73;;;29.70;90.20;;;;;;6271631;22;20737;-87
2021/08/11 12:44:19;;;;;;;5.53;5.00;;;28.70;90.00;;;;;;6271676;22;20457;-92
2021/08/11 12:46:48;;;;;;;8.73;5.47;;;28.40;92.00;;;;;;6297581;22;20396;-89
2021/08/11 12:49:21;;;;;;;5.90;5.40;;;28.70;93.00;;;;;;6272431;22;20703;-89
2021/08/11 12:52:21;;;;;;;8.23;5.87;;;28.40;92.50;;;;;;6298593;22;20381;-89
2021/08/11 12:54:59;;;;;;;5.50;4.80;;;28.30;92.80;;;;;;6271429;22;20439;-89